createdAt,value
2023-03-21T00:01:56.239Z,849.88235
2023-03-21T00:06:57.836Z,891.69231
2023-03-21T00:11:59.534Z,877.33333
2023-03-21T00:17:01.276Z,776.43243
2023-03-21T00:22:07.994Z,644
2023-03-21T00:27:34.618Z,695.21951
2023-03-21T00:32:55.252Z,744
2023-03-21T00:37:57.782Z,636.13483
2023-03-21T00:42:59.397Z,644
2023-03-21T00:48:01.258Z,620.92308
2023-03-21T00:53:02.906Z,686.16867
2023-03-21T00:58:04.529Z,628.44444
2023-03-21T01:03:17.548Z,599.31915
2023-03-21T01:08:29.356Z,628.44444
2023-03-21T01:13:34.563Z,686.16867
2023-03-21T01:18:38.183Z,695.21951
2023-03-21T01:23:39.973Z,811.60563
2023-03-21T01:28:41.637Z,765.33333
2023-03-21T01:33:43.277Z,799.55556
2023-03-21T01:38:44.949Z,765.33333
2023-03-21T01:43:46.597Z,787.83562
2023-03-21T01:48:48.245Z,799.55556
2023-03-21T01:53:50.039Z,744
2023-03-21T01:58:51.640Z,824
2023-03-21T02:03:53.283Z,921.77778
2023-03-21T02:08:54.925Z,863.40299
2023-03-21T02:14:06.411Z,863.40299
2023-03-21T02:19:08.918Z,744
2023-03-21T02:24:10.563Z,677.33333
2023-03-21T02:29:12.166Z,765.33333
2023-03-21T02:34:13.841Z,787.83562
2023-03-21T02:39:15.522Z,863.40299
2023-03-21T02:44:17.157Z,988.0678
2023-03-21T02:49:18.932Z,877.33333
2023-03-21T02:54:34.989Z,799.55556
2023-03-21T02:59:51.580Z,776.43243
2023-03-21T03:04:55.386Z,776.43243
2023-03-21T03:09:57.028Z,776.43243
2023-03-21T03:15:03.464Z,811.60563
2023-03-21T03:20:15.662Z,824
2023-03-21T03:25:25.020Z,849.88235
2023-03-21T03:30:41.205Z,953.83607
2023-03-21T03:35:48.272Z,953.83607
2023-03-21T03:40:55.015Z,970.66667
2023-03-21T03:45:56.622Z,811.60563
2023-03-21T03:50:58.236Z,891.69231
2023-03-21T03:56:00.010Z,891.69231
2023-03-21T04:01:01.687Z,891.69231
2023-03-21T04:06:03.296Z,836.75362
2023-03-21T04:11:04.915Z,744
2023-03-21T04:16:06.624Z,776.43243
2023-03-21T04:21:08.232Z,824
2023-03-21T04:26:09.903Z,836.75362
2023-03-21T04:31:24.549Z,921.77778
2023-03-21T04:36:27.063Z,988.0678
2023-03-21T04:41:28.742Z,1006.06897
2023-03-21T04:46:30.386Z,953.83607
2023-03-21T04:51:32.013Z,891.69231
2023-03-21T04:56:33.672Z,906.5
2023-03-21T05:01:35.309Z,906.5
2023-03-21T05:06:36.998Z,906.5
2023-03-21T05:11:38.645Z,849.88235
2023-03-21T05:16:40.275Z,811.60563
2023-03-21T05:21:42.236Z,849.88235
2023-03-21T05:26:43.891Z,824
2023-03-21T05:31:45.528Z,891.69231
2023-03-21T05:36:47.226Z,836.75362
2023-03-21T05:41:48.931Z,836.75362
2023-03-21T05:46:50.861Z,988.0678
2023-03-21T05:51:52.651Z,970.66667
2023-03-21T05:56:54.292Z,921.77778
2023-03-21T06:01:55.906Z,988.0678
2023-03-21T06:06:57.552Z,1006.06897
2023-03-21T06:11:59.334Z,1006.06897
2023-03-21T06:17:00.944Z,1084.74074
2023-03-21T06:22:02.657Z,1176
2023-03-21T06:27:04.393Z,1128.61538
2023-03-21T06:32:06.094Z,1044
2023-03-21T06:37:07.761Z,1024.70175
2023-03-21T06:42:09.671Z,988.0678
2023-03-21T06:47:11.291Z,1084.74074
2023-03-21T06:52:12.929Z,988.0678
2023-03-21T06:57:14.570Z,1064
2023-03-21T07:02:16.378Z,1151.84314
2023-03-21T07:07:18.010Z,1128.61538
2023-03-21T07:12:19.773Z,1044
2023-03-21T07:17:21.385Z,953.83607
2023-03-21T07:22:23.022Z,970.66667
2023-03-21T07:27:24.754Z,988.0678
2023-03-21T07:32:26.365Z,1064
2023-03-21T07:37:27.991Z,1084.74074
2023-03-21T07:42:29.611Z,1044
2023-03-21T07:47:31.240Z,1044
2023-03-21T07:52:33.070Z,1064
2023-03-21T07:57:34.893Z,1106.26415
2023-03-21T08:02:36.553Z,1084.74074
2023-03-21T08:07:38.248Z,1106.26415
2023-03-21T08:12:39.892Z,1044
2023-03-21T08:17:41.492Z,1064
2023-03-21T08:22:43.130Z,1128.61538
2023-03-21T08:27:44.747Z,1176
2023-03-21T08:32:46.395Z,1106.26415
2023-03-21T08:37:48.199Z,1064
2023-03-21T08:42:49.820Z,1024.70175
2023-03-21T08:47:51.597Z,1044
2023-03-21T08:52:53.306Z,1106.26415
2023-03-21T08:57:54.906Z,1201.14286
2023-03-21T09:02:56.564Z,1151.84314
2023-03-21T09:07:58.167Z,1128.61538
2023-03-21T09:12:59.780Z,1084.74074
2023-03-21T09:18:01.358Z,1064
2023-03-21T09:23:03.048Z,1201.14286
2023-03-21T09:28:04.667Z,1151.84314
2023-03-21T09:33:06.392Z,1064
2023-03-21T09:38:08.088Z,1064
2023-03-21T09:43:09.756Z,1106.26415
2023-03-21T09:48:11.890Z,1176
2023-03-21T09:53:14.623Z,1128.61538
2023-03-21T09:58:16.565Z,1084.74074
2023-03-21T10:03:18.249Z,1044
2023-03-21T10:08:19.978Z,1024.70175
2023-03-21T10:13:21.645Z,1064
2023-03-21T10:18:23.320Z,1064
2023-03-21T10:23:25.021Z,1024.70175
2023-03-21T10:28:26.676Z,970.66667
2023-03-21T10:33:28.262Z,970.66667
2023-03-21T10:38:30.118Z,970.66667
2023-03-21T10:43:31.743Z,953.83607
2023-03-21T10:48:33.487Z,937.54839
2023-03-21T10:53:35.174Z,953.83607
2023-03-21T10:58:36.844Z,921.77778
2023-03-21T11:03:38.474Z,921.77778
2023-03-21T11:08:40.088Z,891.69231
2023-03-21T11:13:41.696Z,863.40299
2023-03-21T11:18:43.352Z,921.77778
2023-03-21T11:23:45.013Z,906.5
2023-03-21T11:28:46.699Z,906.5
2023-03-21T11:33:48.292Z,937.54839
2023-03-21T11:38:49.925Z,937.54839
2023-03-21T11:43:51.773Z,937.54839
2023-03-21T11:48:53.595Z,906.5
2023-03-21T11:53:55.220Z,906.5
2023-03-21T11:58:56.887Z,937.54839
2023-03-21T12:03:58.617Z,953.83607
2023-03-21T12:09:00.312Z,970.66667
2023-03-21T12:14:01.941Z,970.66667
2023-03-21T12:19:03.583Z,953.83607
2023-03-21T12:24:05.210Z,953.83607
2023-03-21T12:29:06.842Z,906.5
2023-03-21T12:34:08.485Z,891.69231
2023-03-21T12:39:10.095Z,937.54839
2023-03-21T12:44:11.732Z,937.54839
2023-03-21T12:49:13.346Z,988.0678
2023-03-21T12:54:15.234Z,988.0678
2023-03-21T12:59:16.840Z,1006.06897
2023-03-21T13:04:18.593Z,988.0678
2023-03-21T13:09:28.394Z,970.66667
2023-03-21T13:14:33.597Z,824
2023-03-21T13:19:35.236Z,863.40299
2023-03-21T13:24:37.184Z,921.77778
2023-03-21T13:29:38.838Z,849.88235
2023-03-21T13:34:40.467Z,776.43243
2023-03-21T13:39:42.046Z,787.83562
2023-03-21T13:44:43.636Z,787.83562
2023-03-21T13:49:45.271Z,824
2023-03-21T13:54:47.021Z,799.55556
2023-03-21T13:59:48.646Z,799.55556
2023-03-21T14:05:04.078Z,824
2023-03-21T14:10:06.880Z,765.33333
2023-03-21T14:15:16.269Z,811.60563
2023-03-21T14:20:18.470Z,776.43243
2023-03-21T14:25:20.096Z,754.52632
2023-03-21T14:30:21.977Z,704.49383
2023-03-21T14:35:23.627Z,704.49383
2023-03-21T14:40:25.245Z,714
2023-03-21T14:45:26.959Z,836.75362
2023-03-21T14:50:28.568Z,776.43243
2023-03-21T14:55:30.180Z,733.74359
2023-03-21T15:00:31.796Z,677.33333
2023-03-21T15:05:33.444Z,824
2023-03-21T15:10:35.029Z,863.40299
2023-03-21T15:15:36.896Z,906.5
2023-03-21T15:20:38.637Z,921.77778
2023-03-21T15:25:40.671Z,988.0678
2023-03-21T15:30:42.501Z,1064
2023-03-21T15:35:44.413Z,1044
2023-03-21T15:40:46.102Z,1044
2023-03-21T15:45:48.285Z,1064
2023-03-21T15:50:49.917Z,1128.61538
2023-03-21T15:55:51.567Z,1151.84314
2023-03-21T16:00:55.263Z,1201.14286
2023-03-21T16:05:57.408Z,1176
2023-03-21T16:10:59.236Z,1227.33333
2023-03-21T16:16:00.867Z,1283.13043
2023-03-21T16:21:02.537Z,1227.33333
2023-03-21T16:26:04.219Z,1201.14286
2023-03-21T16:31:05.879Z,1227.33333
2023-03-21T16:36:07.595Z,0
2023-03-21T16:41:09.207Z,0
2023-03-21T16:46:10.855Z,0
2023-03-21T16:51:12.439Z,0
2023-03-21T16:56:14.130Z,0
2023-03-21T17:01:15.909Z,0
2023-03-21T17:06:17.585Z,0
2023-03-21T17:11:19.253Z,0
2023-03-21T17:16:20.946Z,0
2023-03-21T17:21:22.565Z,0
2023-03-21T17:26:24.220Z,0
2023-03-21T17:31:25.991Z,0
2023-03-21T17:36:27.647Z,0
2023-03-21T17:41:29.248Z,1227.33333
2023-03-21T17:46:30.931Z,1312.88889
2023-03-21T17:51:32.588Z,1283.13043
2023-03-21T17:56:34.182Z,1283.13043
2023-03-21T18:01:36.016Z,1201.14286
2023-03-21T18:06:37.665Z,1151.84314
2023-03-21T18:11:39.296Z,1312.88889
2023-03-21T18:16:41.086Z,1376.55814
2023-03-21T18:21:44.955Z,1376.55814
2023-03-21T18:26:46.878Z,1227.33333
2023-03-21T18:32:04.424Z,1283.13043
2023-03-21T18:37:07.968Z,1344
2023-03-21T18:42:16.714Z,1446.43902
2023-03-21T18:47:19.537Z,1376.55814
2023-03-21T18:52:21.131Z,1410.66667
2023-03-21T18:57:38.197Z,1312.88889
2023-03-21T19:02:45.493Z,1446.43902
2023-03-21T19:07:48.589Z,1410.66667
2023-03-21T19:12:50.228Z,1484
2023-03-21T19:18:30.778Z,1312.88889
2023-03-21T19:24:08.004Z,1283.13043
2023-03-21T19:29:25.136Z,1227.33333
2023-03-21T19:34:26.888Z,1227.33333
2023-03-21T19:39:28.509Z,1410.66667
2023-03-21T19:44:30.200Z,1655.11111
2023-03-21T19:50:00.733Z,1869
2023-03-21T19:55:17.611Z,1376.55814
2023-03-21T20:00:19.217Z,1227.33333
2023-03-21T20:05:21.025Z,1227.33333
2023-03-21T20:10:22.705Z,1484
2023-03-21T20:15:26.846Z,1484
2023-03-21T20:20:30.573Z,1446.43902
2023-03-21T20:25:32.240Z,1523.48718
2023-03-21T20:30:33.921Z,1704
2023-03-21T20:36:24.066Z,1869
2023-03-21T20:41:34.593Z,1869
2023-03-21T20:46:37.684Z,1565.05263
2023-03-21T20:57:11.536Z,1254.6383
2023-03-21T21:02:13.372Z,1312.88889
2023-03-21T21:07:15.140Z,1484
2023-03-21T21:12:16.920Z,1810.66667
2023-03-21T21:17:40.667Z,2068.13793
2023-03-21T21:23:00.097Z,1869
2023-03-21T21:28:02.418Z,1704
2023-03-21T21:33:04.048Z,1755.76471
2023-03-21T21:38:05.737Z,1810.66667
2023-03-21T21:43:07.479Z,1608.86486
2023-03-21T21:48:09.244Z,1655.11111
2023-03-21T21:53:10.944Z,1655.11111
2023-03-21T21:58:12.821Z,1410.66667
2023-03-21T22:03:14.563Z,1410.66667
2023-03-21T22:08:16.209Z,1201.14286
2023-03-21T22:13:17.858Z,1344
2023-03-21T22:18:19.487Z,1446.43902
2023-03-21T22:23:21.116Z,1410.66667
2023-03-21T22:28:22.907Z,1344
2023-03-21T22:33:24.599Z,1312.88889
2023-03-21T22:38:26.226Z,1176
2023-03-21T22:43:27.892Z,1176
2023-03-21T22:48:29.589Z,1151.84314
2023-03-21T22:53:31.254Z,1044
2023-03-21T22:58:32.933Z,1312.88889
2023-03-21T23:03:34.585Z,1523.48718
2023-03-21T23:08:36.239Z,1201.14286
2023-03-21T23:13:37.914Z,1283.13043
2023-03-21T23:18:39.623Z,1446.43902
2023-03-21T23:23:41.293Z,1410.66667
2023-03-21T23:28:42.963Z,1312.88889
2023-03-21T23:33:44.808Z,1344
2023-03-21T23:38:46.674Z,1044
2023-03-21T23:43:48.337Z,1201.14286
2023-03-21T23:48:49.998Z,937.54839
2023-03-21T23:53:51.659Z,849.88235
2023-03-21T23:58:54.033Z,811.60563
